M I D A S
Marine Information and Data Acquisition System
Tripno 490 of the Zeeleeuw from 2003-04-11 08:23:34 to 2003-04-11 16:45:56
Back to CruiseResearch ActivitiesStationsMapUnderway DataData graphs

EquipmentUnitsComment
TimeDGPSUTC
LatitudeDGPSDM.mWGS84
LongitudeDGPSDM.mWGS84
TemperatureSBE03/SBE38deg celciusITS90
ConductivitySBE21S/mITS90
SalinitySBE21 Practical Salinity Units
ChlorophylAChelsea fluorimeterg/lCalibrated in Aceton
Missing or incorrect values are displayed as -999
Sea surface data collected by the RV Zeeleeuw from 2003-04-11 08:23:34 to 2003-04-11 16:45:56
Time Latitude Longitude Temperature Conductivity Salinity ChlorophylA
2003-04-11 08:24:36 51°39.07 3°19.14 -999 0.040543 0.241316 -0.511574
2003-04-11 08:25:36 51°39.22 3°19.45 -999 0.038776 0.230463 -0.511574
2003-04-11 08:26:36 51°39.37 3°19.76 -999 0.038361 0.228127 -0.545283
2003-04-11 08:27:36 51°39.53 3°20.07 -999 0.033371 0.197817 -0.578993
2003-04-11 08:28:36 51°39.68 3°20.38 -999 0.032955 0.195366 -0.646411
2003-04-11 08:29:36 51°39.84 3°20.69 -999 0.033683 0.199806 -0.612702
2003-04-11 08:30:36 51°40 3°20.99 -999 0.036074 0.214203 -0.612702
2003-04-11 08:31:36 51°40.15 3°21.3 -999 0.035554 0.21112 -0.612702
2003-04-11 08:32:36 51°40.31 3°21.6 -999 0.033683 0.199746 -0.545283
2003-04-11 08:33:36 51°40.46 3°21.91 -999 0.030045 0.177884 -0.545283
2003-04-11 08:34:36 51°40.61 3°22.22 -999 0.03202 0.1898 -0.511574
2003-04-11 08:35:36 51°40.77 3°22.53 -999 0.033579 0.199213 -0.477864
2003-04-11 08:36:36 51°40.92 3°22.83 -999 0.034203 0.202992 -0.578993
2003-04-11 08:37:36 51°41.08 3°23.14 -999 0.034203 0.203046 -0.578993
2003-04-11 08:38:36 51°41.23 3°23.45 -999 0.036697 0.218173 -0.612702
2003-04-11 08:39:36 51°41.39 3°23.76 -999 0.041999 0.250432 -0.545283
2003-04-11 08:40:36 51°41.55 3°24.06 -999 0.036178 0.215075 -0.477864
2003-04-11 08:41:36 51°41.71 3°24.37 -999 0.036801 0.218882 -0.578993
2003-04-11 08:42:36 51°41.87 3°24.67 -999 0.038568 0.229647 -0.578993
2003-04-11 08:43:36 51°42.03 3°24.97 -999 0.037425 0.222614 -0.578993
2003-04-11 08:44:36 51°42.19 3°25.28 -999 0.034307 0.203755 -0.477864
2003-04-11 08:45:36 51°42.35 3°25.58 -999 0.034099 0.202532 -0.444155
2003-04-11 08:46:36 51°42.51 3°25.89 -999 0.038464 0.22903 -0.511574
2003-04-11 08:47:36 51°42.66 3°26.2 -999 0.034411 0.204447 -0.612702
2003-04-11 08:48:36 51°42.82 3°26.5 -999 0.03202 0.190031 -0.612702
2003-04-11 08:49:36 51°42.98 3°26.81 -999 0.033371 0.198122 -0.612702
2003-04-11 08:50:36 51°43.14 3°27.12 -999 0.037217 0.221485 -0.612702
2003-04-11 08:51:36 51°43.3 3°27.43 -999 0.037113 0.220829 -0.511574
2003-04-11 08:52:36 51°43.44 3°27.75 -999 0.036697 0.218462 -0.511574
2003-04-11 08:53:36 51°43.58 3°28.08 -999 0.041999 0.250735 -0.612702
2003-04-11 08:54:36 51°43.72 3°28.41 -999 0.039712 0.236967 -0.646411
2003-04-11 08:55:36 51°43.85 3°28.74 -999 0.041167 0.245851 -0.578993
2003-04-11 08:56:36 51°43.99 3°29.08 -999 0.051459 0.309083 -0.612702
2003-04-11 08:57:36 51°44.11 3°29.42 -999 0.045637 0.273237 -0.612702
2003-04-11 08:58:36 51°44.24 3°29.77 -999 0.05489 0.330559 -0.511574
2003-04-11 08:59:36 51°44.37 3°30.11 -999 0.03597 0.214187 -0.545283
2003-04-11 09:00:36 51°44.49 3°30.46 -999 0.038361 0.228758 -0.612702
2003-04-11 09:01:36 51°44.62 3°30.8 -999 0.036489 0.21738 -0.612702
2003-04-11 09:02:36 51°44.75 3°31.16 -999 0.033163 0.197116 -0.612702
2003-04-11 09:03:36 51°44.88 3°31.51 -999 0.032436 0.192771 -0.612702
2003-04-11 09:04:36 51°45.01 3°31.86 -999 0.045741 0.27412 -0.545283
2003-04-11 09:05:36 51°45.13 3°32.21 -999 0.059881 0.361841 -0.511574
2003-04-11 09:06:36 51°45.26 3°32.56 -999 0.039088 0.23341 -0.612702
2003-04-11 09:07:36 51°45.38 3°32.91 -999 0.036697 0.218975 -0.646411
2003-04-11 09:08:36 51°45.51 3°33.25 -999 0.040024 0.239149 -0.612702
2003-04-11 09:09:36 51°45.63 3°33.59 -999 0.035762 0.21306 -0.612702
2003-04-11 09:10:36 51°45.76 3°33.93 -999 0.035138 0.209354 -0.578993
2003-04-11 09:11:36 51°45.88 3°34.27 -999 0.032955 0.196231 -0.511574
2003-04-11 09:12:36 51°46 3°34.62 -999 0.038049 0.227264 -0.545283
2003-04-11 09:13:36 51°46.08 3°34.98 -999 0.035242 0.210088 -0.612702
2003-04-11 09:14:36 51°46.16 3°35.36 -999 0.058633 0.35447 -0.612702
2003-04-11 09:15:36 51°46.23 3°35.73 -999 0.044078 0.264428 -0.578993
2003-04-11 09:16:36 51°46.29 3°36.11 -999 0.041583 0.248986 -0.545283
2003-04-11 09:17:36 51°46.37 3°36.48 -999 0.038049 0.227518 -0.578993
2003-04-11 09:18:36 51°46.46 3°36.85 -999 0.056034 0.338764 -0.612702
2003-04-11 09:19:36 51°46.55 3°37.21 -999 0.036178 0.216082 -0.612702
2003-04-11 09:20:36 51°46.65 3°37.58 -999 0.037737 0.225607 -0.646411
2003-04-11 09:21:36 51°46.75 3°37.94 -999 0.041791 0.250449 -0.545283
2003-04-11 09:22:36 51°46.85 3°38.3 -999 0.047093 0.283323 -0.578993
2003-04-11 09:23:36 51°46.95 3°38.65 -999 0.049068 0.295646 -0.578993
2003-04-11 09:24:36 51°47.06 3°39.01 -999 0.046677 0.280909 -0.545283
2003-04-11 09:25:36 51°47.16 3°39.35 -999 0.042311 0.254042 -0.612702
2003-04-11 09:26:36 51°47.25 3°39.5 -999 0.037633 0.225398 -0.612702
2003-04-11 09:27:36 51°47.3 3°39.55 -999 0.041791 0.250904 -0.612702
2003-04-11 09:28:36 51°47.34 3°39.57 -999 0.043766 0.262953 -0.612702
2003-04-11 09:29:36 51°47.37 3°39.6 -999 0.037945 0.227136 -0.612702
2003-04-11 09:30:36 51°47.4 3°39.63 -999 0.033787 0.201793 -0.612702
2003-04-11 09:31:36 51°47.42 3°39.65 -999 0.033371 0.199269 -0.612702
2003-04-11 09:32:36 51°47.45 3°39.68 -999 0.037945 0.227264 -0.612702
2003-04-11 09:33:36 51°47.47 3°39.7 -999 0.042831 0.257371 -0.578993
2003-04-11 09:34:36 51°47.5 3°39.72 -999 0.047197 0.28432 -0.646411
2003-04-11 09:35:36 51°47.52 3°39.76 -999 0.03888 0.232945 -0.612702
2003-04-11 09:36:36 51°47.55 3°39.85 -999 3.52673 29.137143 64.412734
2003-04-11 09:37:36 51°47.52 3°39.94 -999 3.247664 30.998327 68.01964
2003-04-11 09:38:36 51°47.46 3°39.95 -999 3.220392 30.890128 68.053349
2003-04-11 09:39:36 51°47.4 3°39.93 -999 3.199754 30.731824 68.087059
2003-04-11 09:40:36 51°47.35 3°39.91 -999 3.192068 30.68869 68.087059
2003-04-11 09:41:36 51°47.32 3°39.85 -999 3.185645 30.626282 68.01964
2003-04-11 09:42:36 51°47.29 3°39.79 -999 3.178485 30.584911 68.01964
2003-04-11 09:43:36 51°47.26 3°39.74 -999 3.177854 30.587081 68.053349
2003-04-11 09:44:36 51°47.24 3°39.7 -999 3.176696 30.588836 68.087059
2003-04-11 09:45:36 51°47.21 3°39.68 9.319158 3.177538 30.593359 68.053349
2003-04-11 09:46:36 51°47.18 3°39.66 10.953823 3.175538 30.609167 68.053349
2003-04-11 09:47:36 51°47.15 3°39.63 9.359905 3.174064 30.597902 68.01964
2003-04-11 09:48:36 51°47.13 3°39.59 9.876314 3.174275 30.606839 67.98593
2003-04-11 09:49:36 51°47.11 3°39.56 10.929828 3.173748 30.607171 67.98593
2003-04-11 09:50:36 51°47.08 3°39.52 11.197342 3.172695 30.606348 67.98593
2003-04-11 09:51:36 51°47.06 3°39.48 11.276736 3.172485 30.606332 67.952221
2003-04-11 09:52:36 51°47.04 3°39.44 10.133086 3.172064 30.607044 68.01964
2003-04-11 09:53:36 51°47.02 3°39.39 10.81922 3.17259 30.614155 67.98593
2003-04-11 09:54:36 51°47 3°39.35 10.097456 3.173327 30.616813 67.98593
2003-04-11 09:55:36 51°46.98 3°39.31 9.127539 3.17417 30.631021 68.053349
2003-04-11 09:56:36 51°46.95 3°39.27 10.740523 3.17438 30.63923 67.98593
2003-04-11 09:57:36 51°46.93 3°39.22 11.00756 3.175012 30.642997 67.98593
2003-04-11 09:58:36 51°46.92 3°39.17 10.477889 3.174275 30.633635 68.01964
2003-04-11 09:59:36 51°46.9 3°39.11 8.470312 3.17796 30.67598 67.98593
2003-04-11 10:00:36 51°46.88 3°39.07 10.018402 3.178592 30.68049 68.01964
2003-04-11 10:01:36 51°46.86 3°39.02 8.926151 3.177855 30.679332 68.01964
2003-04-11 10:02:36 51°46.84 3°38.97 8.960331 3.177539 30.682675 68.01964
2003-04-11 10:03:36 51°46.83 3°38.92 10.393514 3.179434 30.702183 67.98593
2003-04-11 10:04:36 51°46.81 3°38.87 9.679029 3.178908 30.689089 68.01964
2003-04-11 10:05:36 51°46.79 3°38.82 8.577886 3.182277 30.718366 67.98593
2003-04-11 10:06:36 51°46.78 3°38.77 10.365209 3.181856 30.720591 67.98593
2003-04-11 10:07:36 51°46.76 3°38.72 9.640933 3.183751 30.73561 68.01964
2003-04-11 10:08:36 51°46.74 3°38.67 8.353418 3.184278 30.737498 68.01964
2003-04-11 10:09:36 51°46.73 3°38.62 10.061573 3.184699 30.743493 68.053349
2003-04-11 10:10:36 51°46.71 3°38.57 8.400211 3.185015 30.745372 68.01964
2003-04-11 10:11:36 51°46.69 3°38.52 9.332474 3.185646 30.743898 67.98593
2003-04-11 10:12:36 51°46.68 3°38.47 8.398336 3.184488 30.744981 67.98593
2003-04-11 10:13:36 51°46.69 3°38.42 9.614329 3.184699 30.739007 68.01964
2003-04-11 10:14:36 51°46.71 3°38.36 9.053436 3.187331 30.752175 68.087059
2003-04-11 10:15:36 51°46.73 3°38.32 9.539977 3.189542 30.759344 68.087059
2003-04-11 10:16:36 51°46.76 3°38.28 8.681691 3.189015 30.743271 68.120768
2003-04-11 10:17:36 51°46.79 3°38.25 9.100724 3.188489 30.740639 68.053349
2003-04-11 10:18:36 51°46.81 3°38.23 9.287727 3.191437 30.783314 68.01964
2003-04-11 10:19:36 51°46.84 3°38.22 8.688966 3.190384 30.772073 67.98593
2003-04-11 10:20:36 51°46.86 3°38.22 9.61197 3.196071 30.841775 68.01964
2003-04-11 10:21:36 51°46.88 3°38.21 7.773219 3.195649 30.84927 68.01964
2003-04-11 10:22:36 51°46.91 3°38.19 9.238298 3.196597 30.851897 67.952221
2003-04-11 10:23:36 51°46.93 3°38.18 8.925006 3.198703 30.869146 67.98593
2003-04-11 10:24:36 51°46.95 3°38.16 8.699207 3.199967 30.884896 67.98593
2003-04-11 10:25:36 51°46.98 3°38.13 9.371745 3.201756 30.893512 68.053349
2003-04-11 10:26:36 51°47 3°38.11 9.841814 3.204705 30.924256 68.01964
2003-04-11 10:27:36 51°47.02 3°38.08 8.247444 3.207548 30.947112 68.01964
2003-04-11 10:28:36 51°47.03 3°38.05 9.159143 3.212286 30.992463 68.01964
2003-04-11 10:29:36 51°47.04 3°38.03 9.374729 3.220289 31.076457 67.952221
2003-04-11 10:30:36 51°47.05 3°38.01 9.39007 3.225554 31.150122 67.98593
2003-04-11 10:31:36 51°47.05 3°37.99 8.835488 3.225554 31.166024 67.952221
2003-04-11 10:32:36 51°47.04 3°37.98 9.508652 3.225239 31.164159 67.952221
2003-04-11 10:33:36 51°47.03 3°37.99 9.265531 3.22587 31.161829 67.952221
2003-04-11 10:34:36 51°47.03 3°38.01 8.109769 3.225449 31.153537 67.952221
2003-04-11 10:35:36 51°47.02 3°38.05 8.938166 3.224712 31.129012 67.98593
2003-04-11 10:36:36 51°47.02 3°38.1 9.774122 3.213444 30.97325 68.053349
2003-04-11 10:37:36 51°47.02 3°38.16 9.967226 3.205547 30.882995 68.087059
2003-04-11 10:38:36 51°47.01 3°38.2 9.956949 3.205125 30.881498 68.087059
2003-04-11 10:39:36 51°47.01 3°38.25 9.157337 3.202388 30.859781 68.01964
2003-04-11 10:40:36 51°47.03 3°38.31 8.896389 3.199334 30.843669 68.01964
2003-04-11 10:41:36 51°47.07 3°38.35 9.176198 3.19765 30.820453 68.01964
2003-04-11 10:42:36 51°47.11 3°38.36 9.056006 3.198386 30.816353 68.087059
2003-04-11 10:43:36 51°47.14 3°38.36 8.935734 3.198808 30.825331 68.01964
2003-04-11 10:44:36 51°47.17 3°38.35 9.581955 3.200177 30.849664 68.01964
2003-04-11 10:45:36 51°47.2 3°38.35 9.017353 3.198597 30.826824 68.087059
2003-04-11 10:46:36 51°47.22 3°38.35 10.079002 3.203967 30.87738 68.053349
2003-04-11 10:47:36 51°47.24 3°38.36 8.705236 3.20502 30.860168 68.120768
2003-04-11 10:48:36 51°47.25 3°38.37 9.408815 3.208916 30.880748 68.390443
2003-04-11 10:49:36 51°47.27 3°38.38 9.944933 3.208495 30.894965 68.154477
2003-04-11 10:50:36 51°47.28 3°38.4 8.912845 3.206494 30.896099 68.087059
2003-04-11 10:51:36 51°47.3 3°38.41 9.239911 3.202388 30.900261 67.98593
2003-04-11 10:52:36 51°47.31 3°38.43 9.502981 3.202072 30.861652 68.087059
2003-04-11 10:53:36 51°47.33 3°38.39 9.523348 3.203019 30.847814 68.120768
2003-04-11 10:54:36 51°47.32 3°38.31 9.489132 3.204704 30.888991 68.053349
2003-04-11 10:55:36 51°47.23 3°38.12 9.23061 3.2086 30.890099 63.266614
2003-04-11 10:56:36 51°47.11 3°37.83 8.595286 3.212075 30.926389 68.053349
2003-04-11 10:57:36 51°47 3°37.53 8.631606 3.225975 31.10098 68.01964
2003-04-11 10:58:36 51°46.89 3°37.22 8.487741 3.227239 31.120508 68.01964
2003-04-11 10:59:36 51°46.78 3°36.91 8.877924 3.232188 31.165805 68.053349
2003-04-11 11:00:36 51°46.67 3°36.61 9.110329 3.228397 31.130612 68.087059
2003-04-11 11:01:36 51°46.56 3°36.3 9.821076 3.224817 31.102191 67.98593
2003-04-11 11:02:36 51°46.45 3°35.99 9.386661 3.217867 31.048317 68.087059
2003-04-11 11:03:36 51°46.35 3°35.68 9.211338 3.215445 31.031485 68.087059
2003-04-11 11:04:36 51°46.24 3°35.37 9.351568 3.214603 31.039823 68.154477
2003-04-11 11:05:36 51°46.16 3°35.03 9.548667 3.213129 31.032358 68.01964
2003-04-11 11:06:36 51°46.1 3°34.68 9.028399 3.213971 31.041367 68.053349
2003-04-11 11:07:36 51°46.03 3°34.33 8.855015 3.216603 31.033311 68.01964
2003-04-11 11:08:36 51°45.96 3°33.98 9.500193 3.223027 31.115537 68.01964
2003-04-11 11:09:36 51°45.87 3°33.66 7.925468 3.219447 31.10976 68.01964
2003-04-11 11:10:36 51°45.77 3°33.33 9.762637 3.217552 31.088725 68.01964
2003-04-11 11:11:36 51°45.69 3°32.99 9.566989 3.223238 31.157145 67.98593
2003-04-11 11:12:36 51°45.62 3°32.64 10.071178 3.226924 31.198117 68.01964
2003-04-11 11:13:36 51°45.7 3°32.32 8.591068 3.228819 31.207024 68.053349
2003-04-11 11:14:36 51°45.92 3°32.36 8.628109 3.24493 31.334585 68.120768
2003-04-11 11:15:36 51°45.96 3°32.7 9.281989 3.243876 31.279278 61.210341
2003-04-11 11:16:36 51°45.77 3°32.81 9.220263 3.247141 31.308834 68.221896
2003-04-11 11:17:36 51°45.59 3°32.61 8.591931 3.231135 31.220435 68.01964
2003-04-11 11:18:36 51°45.43 3°32.37 8.986061 3.227976 31.19649 68.053349
2003-04-11 11:19:36 51°45.27 3°32.09 9.311716 3.227345 31.196555 68.01964
2003-04-11 11:20:36 51°45.12 3°31.82 8.395884 3.228713 31.195278 67.98593
2003-04-11 11:21:36 51°44.97 3°31.54 9.112421 3.230819 31.202644 67.98593
2003-04-11 11:22:36 51°44.83 3°31.25 9.082317 3.2344 31.25309 67.918512
2003-04-11 11:23:36 51°44.69 3°30.96 8.906168 3.23819 31.251888 67.98593
2003-04-11 11:24:36 51°44.55 3°30.66 9.170355 3.243034 31.300633 67.98593
2003-04-11 11:25:36 51°44.41 3°30.37 9.048439 3.252933 31.360818 68.053349
2003-04-11 11:26:36 51°44.28 3°30.08 8.843796 3.258936 31.489792 65.390306
2003-04-11 11:27:36 51°44.15 3°29.79 9.957089 3.260937 31.554894 68.120768
2003-04-11 11:28:36 51°44.01 3°29.51 8.827943 3.269783 31.596726 68.053349
2003-04-11 11:29:36 51°43.88 3°29.22 9.489463 3.26873 31.650773 68.053349
2003-04-11 11:30:36 51°43.74 3°28.93 8.908648 3.268204 31.686762 67.98593
2003-04-11 11:31:36 51°43.59 3°28.65 9.309773 3.26315 31.658696 68.01964
2003-04-11 11:32:36 51°43.44 3°28.4 9.054578 3.260517 31.65356 68.01964
2003-04-11 11:33:36 51°43.26 3°28.17 9.943102 3.261044 31.679329 68.01964
2003-04-11 11:34:36 51°43.07 3°27.98 9.77944 3.261255 31.684692 68.053349
2003-04-11 11:35:36 51°42.87 3°27.83 9.23602 3.260096 31.679188 67.98593
2003-04-11 11:36:36 51°42.66 3°27.69 9.748655 3.260096 31.672997 68.053349
2003-04-11 11:37:36 51°42.46 3°27.56 9.046488 3.258832 31.654755 68.053349
2003-04-11 11:38:36 51°42.25 3°27.44 9.289955 3.256305 31.634512 68.053349
2003-04-11 11:39:36 51°42.04 3°27.31 9.992702 3.25641 31.626373 68.01964
2003-04-11 11:40:36 51°41.84 3°27.19 8.915135 3.257147 31.582627 68.053349
2003-04-11 11:41:36 51°41.63 3°27.06 9.315271 3.255778 31.567151 68.053349
2003-04-11 11:42:36 51°41.42 3°26.93 8.461043 3.256094 31.595965 68.087059
2003-04-11 11:43:36 51°41.21 3°26.8 9.064191 3.258622 31.6324 68.087059
2003-04-11 11:44:36 51°41.01 3°26.66 9.667668 3.271048 31.763757 68.053349
2003-04-11 11:45:36 51°40.81 3°26.48 9.043632 3.283685 31.865555 61.176631
2003-04-11 11:46:36 51°40.61 3°26.31 8.982441 3.287687 31.899266 58.210204
2003-04-11 11:47:36 51°40.42 3°26.13 9.010972 3.288108 31.915465 52.681862
2003-04-11 11:48:36 51°40.24 3°25.88 8.827609 3.282738 31.884903 50.288494
2003-04-11 11:49:36 51°40.09 3°25.61 9.250113 3.280948 31.874189 49.513178
2003-04-11 11:50:36 51°39.93 3°25.34 9.292848 3.278947 31.869764 47.389486
2003-04-11 11:51:36 51°39.77 3°25.07 9.116843 3.277683 31.843707 48.468187
2003-04-11 11:52:36 51°39.62 3°24.81 9.061479 3.25999 31.573148 31.478648
2003-04-11 11:53:36 51°39.46 3°24.55 9.493954 3.25325 31.508513 30.501076
2003-04-11 11:54:36 51°39.3 3°24.28 9.539457 3.241982 31.381536 29.11899
2003-04-11 11:55:36 51°39.15 3°24.02 9.285593 3.238192 31.392869 34.849589
2003-04-11 11:56:36 51°38.98 3°23.76 8.666181 3.238401 31.305047 19.781486
2003-04-11 11:57:36 51°38.81 3°23.52 9.061431 3.236927 31.280897 18.466819
2003-04-11 11:58:36 51°38.63 3°23.31 9.291093 3.246614 31.283497 19.343264
2003-04-11 11:59:36 51°38.43 3°23.13 9.012782 3.249667 31.248741 17.489247
2003-04-11 12:00:36 51°38.22 3°23.01 9.398781 3.24535 31.208791 16.107161
2003-04-11 12:01:36 51°38.01 3°22.93 9.783582 3.224288 30.920324 68.053349
2003-04-11 12:02:36 51°37.79 3°22.91 9.861604 3.214285 30.858768 68.087059
2003-04-11 12:03:36 51°37.57 3°22.91 9.525427 3.206388 30.834412 68.01964
2003-04-11 12:04:36 51°37.36 3°22.96 10.279754 3.201123 30.756042 68.01964
2003-04-11 12:05:36 51°37.16 3°23.06 9.407632 3.203334 30.737201 67.98593
2003-04-11 12:06:36 51°36.95 3°23.16 9.584692 3.19628 30.745421 67.98593
2003-04-11 12:07:36 51°36.75 3°23.28 9.678887 3.195543 30.730876 67.98593
2003-04-11 12:08:36 51°36.55 3°23.4 9.493528 3.194595 30.717814 67.918512
2003-04-11 12:09:36 51°36.35 3°23.56 9.413596 3.189647 30.692637 67.952221
2003-04-11 12:10:36 51°36.15 3°23.71 9.367246 3.188383 30.67695 67.952221
2003-04-11 12:11:36 51°35.96 3°23.86 9.69722 3.188173 30.68586 67.918512
2003-04-11 12:12:36 51°35.79 3°24.04 9.204644 3.190489 30.707561 67.884802
2003-04-11 12:13:36 51°35.7 3°24.22 9.812281 3.197543 30.751429 67.918512
2003-04-11 12:14:36 51°35.64 3°24.31 9.063905 3.196385 30.756224 67.952221
2003-04-11 12:15:36 51°35.57 3°24.37 9.672194 3.195648 30.752098 67.884802
2003-04-11 12:16:36 51°35.47 3°24.47 9.515079 3.194596 30.752803 67.884802
2003-04-11 12:17:36 51°35.37 3°24.59 8.968861 3.193543 30.746054 67.884802
2003-04-11 12:18:36 51°35.28 3°24.71 9.351 3.192806 30.735965 67.884802
2003-04-11 12:19:36 51°35.18 3°24.83 9.304843 3.191858 30.738533 67.884802
2003-04-11 12:20:36 51°35.09 3°24.91 9.639235 3.190279 30.736605 67.918512
2003-04-11 12:21:36 51°35.05 3°24.96 9.950425 3.190805 30.73849 67.952221
2003-04-11 12:22:36 51°35.04 3°24.97 9.162991 3.189963 30.735473 67.952221
2003-04-11 12:23:36 51°35.04 3°24.97 9.433564 3.193016 30.727782 67.918512
2003-04-11 12:24:36 51°35.03 3°24.96 9.8096 3.195332 30.73161 67.918512
2003-04-11 12:25:36 51°35.03 3°24.95 9.963519 3.194069 30.731552 67.918512
2003-04-11 12:26:36 51°35.02 3°24.94 9.50369 3.195438 30.735708 67.918512
2003-04-11 12:27:36 51°35.02 3°24.93 9.461331 3.195227 30.738676 67.952221
2003-04-11 12:28:36 51°35.01 3°24.92 9.603995 3.19628 30.735746 67.952221
2003-04-11 12:29:36 51°35 3°24.91 9.687276 3.197754 30.735071 67.952221
2003-04-11 12:30:36 51°34.99 3°24.91 9.638245 3.196175 30.745789 67.884802
2003-04-11 12:31:36 51°34.98 3°24.9 9.070804 3.198807 30.735121 67.98593
2003-04-11 12:32:36 51°34.97 3°24.89 8.437601 3.199123 30.739967 67.98593
2003-04-11 12:33:36 51°34.95 3°24.89 9.791628 3.199754 30.741483 68.01964
2003-04-11 12:34:36 51°34.94 3°24.89 9.56104 3.200491 30.747835 67.98593
2003-04-11 12:35:36 51°34.93 3°24.9 10.178005 3.19986 30.74409 68.01964
2003-04-11 12:36:36 51°34.92 3°24.91 10.573502 3.200491 30.745605 67.98593
2003-04-11 12:37:36 51°34.91 3°24.93 9.483648 3.199649 30.744824 68.01964
2003-04-11 12:38:36 51°34.9 3°24.94 9.259554 3.200491 30.745605 67.98593
2003-04-11 12:39:36 51°34.89 3°24.96 9.498586 3.20007 30.743356 68.053349
2003-04-11 12:40:36 51°34.89 3°24.99 9.659324 3.201755 30.742692 68.01964
2003-04-11 12:41:36 51°34.89 3°25.01 9.272883 3.205861 30.731402 67.143195
2003-04-11 12:42:36 51°34.89 3°25.03 9.133053 3.206071 30.739567 68.053349
2003-04-11 12:43:36 51°34.9 3°25.05 9.698445 3.205861 30.726956 66.671264
2003-04-11 12:44:36 51°34.91 3°25.07 9.499484 3.207966 30.725597 56.423606
2003-04-11 12:45:36 51°34.92 3°25.09 9.74437 3.204387 30.720204 65.221759
2003-04-11 12:46:36 51°34.94 3°25.1 9.728029 3.201544 30.71893 68.154477
2003-04-11 12:47:36 51°34.96 3°25.13 9.532088 3.210072 30.71759 61.648563
2003-04-11 12:48:36 51°34.97 3°25.18 9.409762 3.200386 30.725915 67.98593
2003-04-11 12:49:36 51°34.96 3°25.22 9.722707 3.195227 30.711901 68.01964
2003-04-11 12:50:36 51°34.93 3°25.25 9.645932 3.202912 30.694936 68.188187
2003-04-11 12:51:36 51°34.9 3°25.26 9.669601 3.204807 30.688409 65.120631
2003-04-11 12:52:36 51°34.86 3°25.25 9.894544 3.207966 30.687896 58.648426
2003-04-11 12:53:36 51°34.82 3°25.24 10.206858 3.20407 30.696123 67.98593
2003-04-11 12:54:36 51°34.79 3°25.26 9.813974 3.201859 30.678588 64.985794
2003-04-11 12:55:36 51°34.77 3°25.31 9.961454 3.207124 30.690051 54.165076
2003-04-11 12:56:36 51°34.75 3°25.36 9.957887 3.20386 30.701289 68.087059
2003-04-11 12:57:36 51°34.73 3°25.41 9.807248 3.195963 30.686334 68.01964
2003-04-11 12:58:36 51°34.7 3°25.47 9.390496 3.194068 30.657302 68.01964
2003-04-11 12:59:36 51°34.68 3°25.52 9.778546 3.198595 30.677248 68.01964
2003-04-11 13:00:36 51°34.65 3°25.57 9.459297 3.20207 30.666038 68.087059
2003-04-11 13:01:36 51°34.61 3°25.61 9.841767 3.201965 30.685622 68.120768
2003-04-11 13:02:36 51°34.57 3°25.64 9.745124 3.201122 30.673728 68.01964
2003-04-11 13:03:36 51°34.52 3°25.67 9.975813 3.209124 30.666965 62.322751
2003-04-11 13:04:36 51°34.47 3°25.68 10.16355 3.201964 30.678965 68.323024
2003-04-11 13:05:36 51°34.42 3°25.68 9.957371 3.204386 30.652198 58.547298
2003-04-11 13:06:36 51°34.37 3°25.7 9.903892 3.201227 30.663757 68.053349
2003-04-11 13:07:36 51°34.33 3°25.72 9.897598 3.198174 30.649108 67.311742
2003-04-11 13:08:36 51°34.28 3°25.75 9.803719 3.1967 30.643077 65.491435
2003-04-11 13:09:36 51°34.24 3°25.79 10.112768 3.203438 30.627427 48.063674
2003-04-11 13:10:36 51°34.22 3°25.84 10.037389 3.208913 30.624267 37.748597
2003-04-11 13:11:36 51°34.2 3°25.88 9.938595 3.205333 30.637909 56.457315
2003-04-11 13:12:36 51°34.18 3°25.91 10.11642 3.208492 30.630107 56.962956
2003-04-11 13:13:36 51°34.16 3°25.93 9.938266 3.215441 30.639587 52.985247
2003-04-11 13:14:36 51°34.14 3°25.95 10.375609 3.219441 30.634854 46.782717
2003-04-11 13:15:36 51°34.12 3°25.97 10.342537 3.230181 30.651318 40.681315
2003-04-11 13:16:36 51°34.1 3°25.98 10.033733 3.230602 30.657935 38.591332
2003-04-11 13:17:36 51°34.08 3°25.99 9.922913 3.233972 30.659743 35.32152
2003-04-11 13:18:36 51°34.05 3°25.99 10.083873 3.220916 30.688539 53.8954
2003-04-11 13:19:36 51°34.03 3°25.99 9.393952 3.214072 30.677312 64.817247
2003-04-11 13:20:36 51°34.01 3°26 9.290003 3.209124 30.665491 59.760836
2003-04-11 13:21:36 51°33.99 3°25.99 8.957281 3.209755 30.671438 68.356734
2003-04-11 13:22:36 51°33.97 3°25.99 9.736836 3.207123 30.667172 68.356734
2003-04-11 13:23:36 51°33.95 3°25.99 9.33219 3.208387 30.666536 65.862238
2003-04-11 13:24:36 51°33.92 3°25.98 9.752987 3.20965 30.663693 62.053076
2003-04-11 13:25:36 51°33.9 3°25.97 10.48748 3.207966 30.672401 67.008358
2003-04-11 13:26:36 51°33.88 3°25.97 9.306028 3.209966 30.660406 61.480016
2003-04-11 13:27:36 51°33.86 3°25.96 10.170707 3.209966 30.663351 63.098067
2003-04-11 13:28:36 51°33.84 3°25.95 10.111411 3.210071 30.657102 62.086785
2003-04-11 13:29:36 51°33.82 3°25.94 9.449885 3.213967 30.648992 57.367469
2003-04-11 13:30:36 51°33.81 3°25.93 9.507802 3.21344 30.660337 57.333759
2003-04-11 13:31:36 51°33.79 3°25.92 9.595312 3.214388 30.668141 62.760973
2003-04-11 13:32:36 51°33.78 3°25.91 9.893981 3.20944 30.666622 68.154477
2003-04-11 13:33:36 51°33.75 3°25.89 9.932492 3.206597 30.652016 68.087059
2003-04-11 13:34:36 51°33.73 3°25.86 9.779911 3.213335 30.662167 56.861828
2003-04-11 13:35:36 51°33.73 3°25.78 9.772851 3.21323 30.650762 51.063811
2003-04-11 13:36:36 51°33.78 3°25.67 9.562031 3.225338 30.64424 49.41205
2003-04-11 13:37:36 51°33.88 3°25.4 10.195122 3.212914 30.658453 48.8727
2003-04-11 13:38:36 51°33.96 3°25.05 9.54078 3.203122 30.629239 66.165623
2003-04-11 13:39:36 51°34.04 3°24.71 9.027542 3.200491 30.684781 68.053349
2003-04-11 13:40:36 51°34.12 3°24.36 9.533883 3.201228 30.691123 68.053349
2003-04-11 13:41:36 51°34.19 3°24.01 9.803672 3.201649 30.714116 67.98593
2003-04-11 13:42:36 51°34.27 3°23.66 9.407159 3.20007 30.747817 67.98593
2003-04-11 13:43:36 51°34.34 3°23.31 9.467289 3.201018 30.765336 67.952221
2003-04-11 13:44:36 51°34.38 3°22.94 9.490929 3.207124 30.759647 68.01964
2003-04-11 13:45:36 51°34.42 3°22.57 9.231606 3.20365 30.774736 67.952221
2003-04-11 13:46:36 51°34.46 3°22.2 9.38936 3.192805 30.66907 67.98593
2003-04-11 13:47:36 51°34.51 3°21.83 9.534119 3.19828 30.735467 67.918512
2003-04-11 13:48:36 51°34.55 3°21.46 9.027066 3.201755 30.76053 67.952221
2003-04-11 13:49:36 51°34.59 3°21.09 9.447378 3.198702 30.747385 67.918512
2003-04-11 13:50:36 51°34.63 3°20.71 8.948606 3.206494 30.841504 67.918512
2003-04-11 13:51:36 51°34.68 3°20.33 9.206068 3.214602 30.922616 67.918512
2003-04-11 13:52:36 51°34.72 3°19.95 8.718967 3.2285 30.979994 67.884802
2003-04-11 13:53:36 51°34.72 3°19.57 9.900698 3.220919 30.960695 67.884802
2003-04-11 13:54:36 51°34.73 3°19.21 9.244562 3.22376 30.774533 67.98593
2003-04-11 13:55:36 51°34.77 3°19.04 9.518718 3.231236 30.79595 67.98593
2003-04-11 13:56:36 51°34.82 3°19 9.692366 3.249557 30.865282 68.087059
2003-04-11 13:57:36 51°34.85 3°19.01 9.360473 3.241029 30.906725 68.053349
2003-04-11 13:58:36 51°34.88 3°19.02 9.212478 3.226604 30.921069 67.98593
2003-04-11 13:59:36 51°34.92 3°19.06 9.846844 3.235869 30.849284 68.053349
2003-04-11 14:00:36 51°34.95 3°19.13 9.625415 3.23071 30.862812 67.98593
2003-04-11 14:01:36 51°34.97 3°19.22 10.012494 3.223339 30.809995 67.98593
2003-04-11 14:02:36 51°34.99 3°19.3 10.060354 3.24029 30.778823 59.861965
2003-04-11 14:03:36 51°35.01 3°19.36 9.938642 3.24903 30.777592 50.457042
2003-04-11 14:04:36 51°35.03 3°19.41 10.30254 3.252083 30.796459 46.883845
2003-04-11 14:05:36 51°35.06 3°19.45 9.654609 3.255242 30.795216 47.18723
2003-04-11 14:06:36 51°35.08 3°19.49 9.594793 3.262297 30.826008 62.491298
2003-04-11 14:07:36 51°35.1 3°19.54 9.679311 3.248504 30.858617 68.01964
2003-04-11 14:08:36 51°35.13 3°19.57 9.615272 3.243555 30.816103 62.895811
2003-04-11 14:09:36 51°35.16 3°19.6 9.57917 3.246398 30.811489 56.423606
2003-04-11 14:10:36 51°35.18 3°19.65 9.558915 3.240291 30.852398 67.952221
2003-04-11 14:11:36 51°35.2 3°19.7 9.766403 3.227762 30.833104 68.053349
2003-04-11 14:12:36 51°35.23 3°19.74 9.761978 3.241028 30.807881 58.682136
2003-04-11 14:13:36 51°35.25 3°19.79 9.355358 3.243871 30.833398 68.053349
2003-04-11 14:14:36 51°35.27 3°19.85 10.066446 3.227867 30.87053 67.952221
2003-04-11 14:15:36 51°35.3 3°19.9 10.142166 3.237659 30.837174 68.053349
2003-04-11 14:16:36 51°35.32 3°19.94 9.331574 3.235447 30.807219 68.255606
2003-04-11 14:17:36 51°35.35 3°19.98 9.676672 3.238396 30.827253 68.120768
2003-04-11 14:18:36 51°35.38 3°20.03 9.682422 3.235869 30.816082 68.154477
2003-04-11 14:19:36 51°35.4 3°20.08 9.710365 3.232394 30.802276 68.289315
2003-04-11 14:20:36 51°35.43 3°20.12 9.747996 3.233552 30.818925 68.087059
2003-04-11 14:21:36 51°35.45 3°20.17 9.450358 3.230394 30.810665 68.087059
2003-04-11 14:22:36 51°35.48 3°20.21 10.252334 3.230604 30.804032 64.210477
2003-04-11 14:23:36 51°35.51 3°20.25 10.364836 3.231236 30.795213 60.940665
2003-04-11 14:24:36 51°35.54 3°20.28 8.892477 3.23092 30.791879 61.884529
2003-04-11 14:25:36 51°35.57 3°20.31 9.778687 3.227972 30.786563 68.087059
2003-04-11 14:26:36 51°35.6 3°20.35 9.711072 3.223444 30.744644 68.053349
2003-04-11 14:27:36 51°35.63 3°20.39 10.143102 3.228498 30.780323 68.087059
2003-04-11 14:28:36 51°35.65 3°20.44 9.627019 3.227339 30.72762 68.087059
2003-04-11 14:29:36 51°35.68 3°20.48 9.340056 3.235026 30.767466 66.738683
2003-04-11 14:30:36 51°35.7 3°20.52 9.439762 3.234604 30.749078 64.513862
2003-04-11 14:31:36 51°35.73 3°20.57 9.420741 3.236605 30.778957 65.929657
2003-04-11 14:32:36 51°35.75 3°20.61 9.581813 3.23292 30.793828 68.053349
2003-04-11 14:33:36 51°35.75 3°20.66 10.402464 3.227761 30.788765 68.087059
2003-04-11 14:34:36 51°35.75 3°20.69 9.512575 3.22755 30.774003 68.053349
2003-04-11 14:35:36 51°35.74 3°20.73 10.118012 3.231235 30.765018 68.087059
2003-04-11 14:36:36 51°35.73 3°20.77 9.680443 3.229551 30.775223 68.120768
2003-04-11 14:37:36 51°35.72 3°20.8 9.669884 3.228708 30.758972 68.087059
2003-04-11 14:38:36 51°35.71 3°20.83 10.076893 3.228287 30.749378 68.154477
2003-04-11 14:39:36 51°35.7 3°20.85 10.039827 3.233551 30.74313 62.154204
2003-04-11 14:40:36 51°35.69 3°20.87 9.853473 3.240817 30.746974 56.255059
2003-04-11 14:41:36 51°35.68 3°20.89 9.690858 3.239132 30.756372 54.063947
2003-04-11 14:42:36 51°35.66 3°20.91 9.925449 3.234289 30.747221 56.019093
2003-04-11 14:43:36 51°35.65 3°20.92 10.604551 3.235763 30.747327 59.052939
2003-04-11 14:44:36 51°35.65 3°20.94 9.674881 3.235868 30.752838 63.098067
2003-04-11 14:45:36 51°35.66 3°20.95 9.821029 3.222075 30.754512 68.087059
2003-04-11 14:46:36 51°35.67 3°20.95 9.775299 3.229024 30.744647 68.087059
2003-04-11 14:47:36 51°35.68 3°20.92 9.338397 3.213126 30.772898 67.952221
2003-04-11 14:48:36 51°35.67 3°20.81 9.940989 3.207335 30.735188 67.98593
2003-04-11 14:49:36 51°35.57 3°20.6 9.775346 3.221127 30.706934 56.221349
2003-04-11 14:50:36 51°35.42 3°20.31 9.702026 3.231446 30.769446 68.01964
2003-04-11 14:51:36 51°35.26 3°20.01 9.57714 3.219443 30.797621 68.087059
2003-04-11 14:52:36 51°35.11 3°19.71 9.312238 3.214179 30.801126 68.01964
2003-04-11 14:53:36 51°34.96 3°19.4 9.738343 3.217338 30.810884 67.952221
2003-04-11 14:54:36 51°34.81 3°19.1 9.127967 3.224498 30.826698 67.952221
2003-04-11 14:55:36 51°34.65 3°18.81 9.599748 3.231342 30.861347 67.98593
2003-04-11 14:56:36 51°34.5 3°18.5 9.770075 3.232289 30.824775 68.01964
2003-04-11 14:57:36 51°34.35 3°18.21 9.054341 3.23629 30.836011 68.053349
2003-04-11 14:58:36 51°34.2 3°17.9 9.514985 3.227762 30.886489 67.98593
2003-04-11 14:59:36 51°34.04 3°17.6 10.167059 3.240188 31.022665 67.075777
2003-04-11 15:00:36 51°33.89 3°17.3 9.420931 3.285154 31.382204 41.254375
2003-04-11 15:01:36 51°33.74 3°17.01 9.296546 3.277573 31.434534 42.400494
2003-04-11 15:02:36 51°33.58 3°16.71 10.072162 3.284944 31.446283 42.737589
2003-04-11 15:03:36 51°33.43 3°16.42 9.338776 3.284733 31.41086 40.175674
2003-04-11 15:04:36 51°33.28 3°16.12 9.704617 3.26978 31.376658 42.569042
2003-04-11 15:05:36 51°33.13 3°15.82 9.819148 3.265251 31.302127 43.24323
2003-04-11 15:06:36 51°32.99 3°15.51 9.997158 3.266304 31.295235 49.715435
2003-04-11 15:07:36 51°32.84 3°15.21 9.469039 3.26999 31.293718 50.760426
2003-04-11 15:08:36 51°32.65 3°14.98 9.918405 3.274412 31.288768 43.479195
2003-04-11 15:09:36 51°32.46 3°14.75 9.61263 3.279151 31.325426 49.715435
2003-04-11 15:10:36 51°32.29 3°14.48 9.163466 3.267042 31.322649 50.119947
2003-04-11 15:11:36 51°32.13 3°14.19 9.602013 3.274518 31.374896 49.41205
2003-04-11 15:12:36 51°31.97 3°13.91 9.500902 3.276941 31.449016 47.490614
2003-04-11 15:13:36 51°31.81 3°13.62 9.804425 3.287261 31.512487 43.580324
2003-04-11 15:14:36 51°31.65 3°13.34 10.224295 3.291368 31.553847 41.288084
2003-04-11 15:15:36 51°31.5 3°13.04 9.763296 3.302321 31.61702 39.568905
2003-04-11 15:16:36 51°31.34 3°12.74 10.358026 3.295477 31.668325 36.703606
2003-04-11 15:17:36 51°31.19 3°12.45 10.321165 3.312958 31.717742 31.37752
2003-04-11 15:18:36 51°31.04 3°12.15 10.832373 3.318855 31.778817 28.377383
2003-04-11 15:19:36 51°30.88 3°11.85 9.777276 3.316855 31.80031 27.500939
2003-04-11 15:20:36 51°30.73 3°11.55 9.604845 3.3237 31.802778 25.377247
2003-04-11 15:21:36 51°30.57 3°11.26 9.308019 3.328333 31.787937 25.2087
2003-04-11 15:22:36 51°30.44 3°10.94 10.085232 3.316434 31.801947 28.680768
2003-04-11 15:23:36 51°30.3 3°10.62 9.808706 3.308535 31.767628 30.534785
2003-04-11 15:24:36 51°30.17 3°10.3 9.828036 3.309799 31.737527 29.456084
2003-04-11 15:25:36 51°30.03 3°9.99 9.53497 3.312642 31.779978 29.826888
2003-04-11 15:26:36 51°29.89 3°9.67 9.692225 3.317276 31.80861 28.512221
2003-04-11 15:27:36 51°29.76 3°9.35 10.248082 3.327281 31.856042 27.46723
2003-04-11 15:28:36 51°29.62 3°9.03 9.66319 3.32328 31.885461 24.63564
2003-04-11 15:29:36 51°29.48 3°8.71 9.243897 3.313381 31.894463 23.590648
2003-04-11 15:30:36 51°29.35 3°8.4 9.340956 3.312854 31.880378 22.983879
2003-04-11 15:31:36 51°29.21 3°8.08 9.114894 3.316329 31.882067 22.91646
2003-04-11 15:32:36 51°29.07 3°7.76 9.959389 3.314013 31.896586 23.118717
2003-04-11 15:33:36 51°28.93 3°7.44 10.231867 3.337497 31.901772 21.466956
2003-04-11 15:34:36 51°28.79 3°7.12 10.081765 3.330125 31.921453 18.230853
2003-04-11 15:35:36 51°28.66 3°6.79 9.821311 3.307063 31.889401 19.848905
2003-04-11 15:36:36 51°28.52 3°6.47 10.053934 3.304746 31.873117 21.129862
2003-04-11 15:37:36 51°28.38 3°6.15 10.421061 3.313591 31.862869 21.062443
2003-04-11 15:38:36 51°28.25 3°5.83 10.383676 3.324544 31.915789 20.65793
2003-04-11 15:39:36 51°28.11 3°5.5 10.252194 3.321279 31.92098 14.219435
2003-04-11 15:40:36 51°27.97 3°5.18 9.698916 3.31096 31.96044 21.601794
2003-04-11 15:41:36 51°27.83 3°4.86 9.972106 3.320858 31.899583 25.2087
2003-04-11 15:42:36 51°27.7 3°4.54 9.799768 3.317067 31.924554 44.187093
2003-04-11 15:43:36 51°27.56 3°4.21 10.156344 3.329282 31.889524 23.320973
2003-04-11 15:44:36 51°27.42 3°3.89 10.10434 3.347396 31.944803 21.096153
2003-04-11 15:45:36 51°27.28 3°3.56 9.567509 3.31117 31.971211 26.118853
2003-04-11 15:46:36 51°27.15 3°3.24 10.257847 3.302114 31.947033 16.444255
2003-04-11 15:47:36 51°27.01 3°2.91 10.470206 3.312328 31.944923 21.837759
2003-04-11 15:48:36 51°26.87 3°2.59 10.091742 3.311592 31.989669 45.46805
2003-04-11 15:49:36 51°26.73 3°2.26 9.214566 3.311802 31.972554 61.985657
2003-04-11 15:50:36 51°26.6 3°1.94 9.432145 3.304326 32.00573 68.053349
2003-04-11 15:51:36 51°26.46 3°1.61 9.575912 3.301588 32.009019 68.053349
2003-04-11 15:52:36 51°26.32 3°1.28 9.850464 3.301272 32.005623 68.01964
2003-04-11 15:53:36 51°26.16 3°1 9.260503 3.300009 32.005286 67.918512
2003-04-11 15:54:36 51°25.95 3°0.79 9.42377 3.300325 32.011021 67.98593
2003-04-11 15:55:36 51°25.74 3°0.58 9.641593 3.295586 32.0006 67.98593
2003-04-11 15:56:36 51°25.53 3°0.37 9.414542 3.299271 31.983341 67.480289
2003-04-11 15:57:36 51°25.32 3°0.17 10.206952 3.312539 31.956452 28.478512
2003-04-11 15:58:36 51°25.11 2°59.96 10.027451 3.363615 31.965388 11.724939
2003-04-11 15:59:36 51°24.91 2°59.76 9.844729 3.332653 31.976735 16.241999
2003-04-11 16:00:36 51°24.7 2°59.55 10.010712 3.337707 31.923871 13.814922
2003-04-11 16:01:36 51°24.49 2°59.36 10.216115 3.343921 31.927849 16.241999
2003-04-11 16:02:36 51°24.28 2°59.16 9.863108 3.347184 31.793776 21.837759
2003-04-11 16:03:36 51°24.07 2°58.97 10.026373 3.310641 31.740378 23.051298
2003-04-11 16:04:36 51°23.86 2°58.77 9.719315 3.298846 31.67444 26.658204
2003-04-11 16:05:36 51°23.65 2°58.57 9.711825 3.296529 31.63074 31.310101
2003-04-11 16:06:36 51°23.44 2°58.37 9.687701 3.303058 31.65448 29.725759
2003-04-11 16:07:36 51°23.23 2°58.17 10.330079 3.293371 31.674913 27.500939
2003-04-11 16:08:36 51°23.02 2°57.97 10.256539 3.307271 31.709899 19.511811
2003-04-11 16:09:36 51°22.81 2°57.77 9.761366 3.332019 31.741948 15.365554
2003-04-11 16:10:36 51°22.61 2°57.55 9.856058 3.312431 31.712914 18.43311
2003-04-11 16:11:36 51°22.41 2°57.33 9.592952 3.312642 31.699936 17.354409
2003-04-11 16:12:36 51°22.21 2°57.11 10.008133 3.310219 31.653746 15.129589
2003-04-11 16:13:36 51°22.01 2°56.89 10.027451 3.304111 31.59128 12.196871
2003-04-11 16:14:36 51°21.82 2°56.67 9.863532 3.307795 31.512544 12.871059
2003-04-11 16:15:36 51°21.62 2°56.45 10.382137 3.301477 31.487169 13.983469
2003-04-11 16:16:36 51°21.42 2°56.23 9.816937 3.294315 31.428762 12.331708
2003-04-11 16:17:36 51°21.23 2°56 9.394141 3.270728 31.372374 9.601247
2003-04-11 16:18:36 51°21.03 2°55.77 9.516308 3.264831 31.348209 8.387708
2003-04-11 16:19:36 51°20.84 2°55.55 9.928266 3.273149 31.32797 7.679811
2003-04-11 16:20:36 51°20.64 2°55.32 9.528545 3.275255 31.339767 8.118033
2003-04-11 16:21:36 51°20.45 2°55.09 10.385821 3.27536 31.300303 7.983195
2003-04-11 16:22:36 51°20.25 2°54.86 9.979613 3.276729 31.312547 8.016905
2003-04-11 16:23:36 51°20.06 2°54.63 10.094318 3.280309 31.285212 8.084324
2003-04-11 16:24:36 51°19.87 2°54.4 9.825873 3.29105 31.326077 12.264289
2003-04-11 16:25:36 51°19.67 2°54.18 9.807201 3.269885 31.32119 12.80364
2003-04-11 16:26:36 51°19.48 2°53.95 10.06757 3.26462 31.299183 15.129589
2003-04-11 16:27:36 51°19.28 2°53.73 9.844635 3.26462 31.311997 17.86005
2003-04-11 16:28:36 51°19.09 2°53.5 -999 3.271779 31.275143 16.916187
2003-04-11 16:29:36 51°18.88 2°53.29 -999 3.273359 31.274619 15.230717
2003-04-11 16:30:36 51°18.68 2°53.09 -999 3.274095 31.219563 9.601247
2003-04-11 16:31:36 51°18.47 2°52.88 -999 3.280834 31.161854 7.983195
2003-04-11 16:32:36 51°18.26 2°52.69 -999 3.269777 31.115165 11.893486
2003-04-11 16:33:36 51°18.05 2°52.51 -999 3.265565 31.098227 11.320426
2003-04-11 16:34:36 51°17.82 2°52.38 -999 3.261774 31.078285 15.904905
2003-04-11 16:35:36 51°17.58 2°52.28 -999 3.248612 31.050768 22.37711
2003-04-11 16:36:36 51°17.34 2°52.23 -999 3.24619 31.019916 19.309554
2003-04-11 16:37:36 51°17.12 2°52.35 -999 3.246295 30.999458 19.714067
2003-04-11 16:38:36 51°16.93 2°52.57 -999 3.243873 30.979044 18.635366
2003-04-11 16:39:36 51°16.73 2°52.77 -999 3.24482 30.970499 17.28699
2003-04-11 16:40:36 51°16.52 2°52.96 -999 3.247874 30.954561 16.208289
2003-04-11 16:41:36 51°16.32 2°53.15 -999 3.24503 30.903847 14.219435
2003-04-11 16:42:36 51°16.12 2°53.34 -999 3.234079 30.808994 12.129452
2003-04-11 16:43:36 51°15.94 2°53.5 -999 3.231025 30.763533 11.253007
2003-04-11 16:44:36 51°15.76 2°53.67 -999 3.235868 30.749903 9.736084
2003-04-11 16:45:36 51°15.58 2°53.84 -999 3.248293 30.787419 10.174306